Data for 03/11/2014

Time Sea-Level Adjusted Pressure Absolute Pressure Temperature Relative Humidity Dew Point   
(mb) (inHg) (mb) (inHg) (C) (F) (%) (C) (F)
00:05 1015 29.97 844 24.92 0.2 32.3 96 -0.4 31.2
00:10 1015 29.97 844 24.92 0.2 32.3 96 -0.4 31.2
00:15 1015 29.97 844 24.92 0.2 32.3 96 -0.4 31.2
00:20 1015 29.97 844 24.92 0.1 32.3 96 -0.4 31.2
00:25 1015 29.97 844 24.92 0.2 32.3 96 -0.4 31.2
00:30 1015 29.97 844 24.92 0.1 32.2 96 -0.4 31.2
00:35 1015 29.97 844 24.92 0.1 32.2 96 -0.4 31.2
00:40 1015 29.97 844 24.92 0.1 32.2 96 -0.4 31.2
00:45 1015 29.97 845 24.95 0.1 32.2 96 -0.4 31.2
00:50 1015 29.97 845 24.95 0.1 32.2 96 -0.5 31.2
00:55 1015 29.97 845 24.95 0.1 32.1 96 -0.5 31.2
01:00 1015 29.97 845 24.95 0.1 32.1 96 -0.5 31.1
01:05 1016 30 845 24.95 0 32 96 -0.5 31.1
01:10 1016 30 845 24.95 -0 32 96 -0.5 31
01:15 1016 30 845 24.95 -0 32 96 -0.5 31
01:20 1016 30 845 24.95 -0 31.9 96 -0.6 31
01:25 1016 30 845 24.95 -0 31.9 97 -0.5 31.1
01:30 1016 30 845 24.95 -0.1 31.9 97 -0.5 31
01:35 1016 30 845 24.95 -0.1 31.9 97 -0.6 31
01:40 1016 30 845 24.95 -0.1 31.9 96 -0.6 31
01:45 1016 30 845 24.95 -0.1 31.8 97 -0.6 30.9
01:50 1016 30 845 24.95 -0.2 31.7 96 -0.7 30.8
01:55 1016 30 846 24.98 -0.2 31.6 97 -0.7 30.8
02:00 1017 30.03 846 24.98 -0.2 31.6 96 -0.7 30.7
02:05 1017 30.03 846 24.98 -0.3 31.5 97 -0.8 30.6
02:10 1017 30.03 846 24.98 -0.4 31.3 97 -0.9 30.5
02:15 1017 30.03 846 24.98 -0.5 31.1 97 -1 30.2
02:20 1017 30.03 846 24.98 -0.5 31 96 -1.1 30.1
02:25 1017 30.03 846 24.98 -0.6 30.9 97 -1.1 30
02:30 1017 30.03 846 24.98 -0.7 30.8 97 -1.1 30
02:35 1017 30.03 846 24.98 -0.6 31 97 -1 30.1
02:40 1017 30.03 847 25.01 -0.6 30.9 97 -1.1 30.1
02:45 1017 30.03 847 25.01 -0.6 30.9 97 -1.1 30
02:50 1017 30.03 847 25.01 -0.7 30.8 97 -1.1 30
02:55 1017 30.03 847 25.01 -0.7 30.8 97 -1.1 30
03:00 1017 30.03 847 25.01 -0.6 30.9 97 -1.1 30.1
03:05 1018 30.06 847 25.01 -0.6 30.9 97 -1 30.1
03:10 1018 30.06 847 25.01 -0.5 31 97 -1 30.3
03:15 1018 30.06 847 25.01 -0.5 31 97 -1 30.3
03:20 1018 30.06 847 25.01 -0.6 31 97 -1 30.2
03:25 1018 30.06 847 25.01 -0.6 31 97 -1 30.2
03:30 1018 30.06 847 25.01 -0.6 30.9 97 -1 30.2
03:35 1018 30.06 847 25.01 -0.6 30.9 97 -1.1 30.1
03:40 1018 30.06 847 25.01 -0.7 30.8 97 -1.1 30
03:45 1018 30.06 847 25.01 -0.8 30.6 97 -1.2 29.8
03:50 1018 30.06 848 25.04 -0.9 30.3 97 -1.3 29.6
03:55 1018 30.06 848 25.04 -1.1 30.1 97 -1.5 29.3
04:00 1019 30.09 848 25.04 -1.3 29.7 97 -1.7 28.9
04:05 1019 30.09 848 25.04 -1.4 29.5 97 -1.8 28.7
04:10 1019 30.09 848 25.04 -1.5 29.4 97 -1.9 28.5
04:15 1019 30.09 848 25.04 -1.5 29.2 96 -2 28.3
04:20 1019 30.09 848 25.04 -1.7 29 96 -2.2 28
04:25 1019 30.09 848 25.04 -1.8 28.8 95 -2.5 27.6
04:30 1019 30.09 849 25.07 -1.9 28.7 94 -2.6 27.3
04:35 1020 30.12 849 25.07 -1.9 28.6 94 -2.7 27.1
04:40 1020 30.12 849 25.07 -1.9 28.6 94 -2.7 27.1
04:45 1020 30.12 849 25.07 -1.9 28.5 94 -2.8 27
04:50 1020 30.12 849 25.07 -2 28.4 94 -2.8 26.9
04:55 1020 30.12 849 25.07 -2.1 28.3 95 -2.8 27
05:00 1020 30.12 849 25.07 -2.1 28.3 94 -2.9 26.8
05:05 1020 30.12 850 25.1 -2.1 28.3 94 -2.9 26.9
05:10 1020 30.12 850 25.1 -2.1 28.2 95 -2.8 26.9
05:15 1021 30.15 850 25.1 -2.1 28.2 95 -2.9 26.8
05:20 1021 30.15 850 25.1 -2.1 28.2 94 -2.9 26.8
05:25 1021 30.15 850 25.1 -2.1 28.2 94 -3 26.6
05:30 1021 30.15 850 25.1 -2.2 28.1 94 -3 26.6
05:35 1021 30.15 850 25.1 -2.2 28.1 94 -3 26.6
05:40 1021 30.15 851 25.13 -2.2 28.1 94 -3 26.7
05:45 1022 30.18 851 25.13 -2.2 28.1 95 -2.9 26.8
05:50 1022 30.18 851 25.13 -2.1 28.1 94 -2.9 26.7
05:55 1022 30.18 851 25.13 -2.1 28.2 94 -2.9 26.8
06:00 1022 30.18 851 25.13 -2.1 28.2 94 -2.9 26.7
06:05 1022 30.18 851 25.13 -2.1 28.3 93 -3 26.6
06:10 1022 30.18 851 25.13 -2 28.4 92 -3.1 26.4
06:15 1022 30.18 852 25.16 -2 28.5 92 -3.1 26.4
06:20 1023 30.21 852 25.16 -2 28.4 92 -3.1 26.5
06:25 1023 30.21 852 25.16 -2.1 28.2 93 -3.1 26.4
06:30 1023 30.21 852 25.16 -2.1 28.1 92 -3.3 26
06:35 1023 30.21 852 25.16 -2.2 28 91 -3.6 25.6
06:40 1023 30.21 852 25.16 -2.3 27.9 89 -3.9 25
06:45 1023 30.21 852 25.16 -2.2 28 89 -3.9 25
06:50 1023 30.21 852 25.16 -2.3 27.9 88 -3.9 24.9
06:55 1023 30.21 852 25.16 -2.2 28 89 -3.9 25
07:00 1023 30.21 853 25.19 -2.2 28 88 -4 24.8
07:05 1024 30.24 853 25.19 -2.3 27.9 89 -3.8 25.2
07:10 1024 30.24 853 25.19 -2.3 28 88 -4 24.9
07:15 1024 30.24 853 25.19 -2.2 28 86 -4.2 24.4
07:20 1024 30.24 853 25.19 -2.2 28 86 -4.3 24.3
07:25 1024 30.24 853 25.19 -2.2 28 86 -4.2 24.4
07:30 1024 30.24 853 25.19 -2.2 28 86 -4.3 24.3
07:35 1024 30.24 853 25.19 -2.3 27.9 85 -4.4 24
07:40 1024 30.24 853 25.19 -2.2 28 85 -4.4 24.1
07:45 1024 30.24 854 25.22 -2.3 27.9 86 -4.4 24.2
07:50 1024 30.24 854 25.22 -2.3 27.9 87 -4.1 24.6
07:55 1025 30.27 854 25.22 -2.3 27.9 87 -4.1 24.5
08:00 1025 30.27 854 25.22 -2.3 27.9 87 -4.2 24.4
08:05 1025 30.27 854 25.22 -2.3 27.9 86 -4.4 24.1
08:10 1025 30.27 854 25.22 -2.2 28 85 -4.4 24.1
08:15 1025 30.27 854 25.22 -2.2 28.1 84 -4.5 23.9
08:20 1025 30.27 854 25.22 -2.2 28 84 -4.5 23.9
08:25 1025 30.27 854 25.22 -2.2 28.1 84 -4.5 23.8
08:30 1025 30.27 854 25.22 -2.2 28 85 -4.5 24
08:35 1025 30.27 854 25.22 -2.1 28.3 84 -4.4 24
08:40 1025 30.27 855 25.25 -1.3 29.7 79 -4.4 24.1
08:45 1025 30.27 855 25.25 -1 30.3 78 -4.3 24.3
08:50 1026 30.3 855 25.25 -1.4 29.5 77 -5 23.1
08:55 1026 30.3 855 25.25 -1.5 29.3 78 -4.8 23.3
09:00 1026 30.3 855 25.25 -1.4 29.5 77 -5 23.1
09:05 1026 30.3 855 25.25 -1.4 29.5 78 -4.8 23.4
09:10 1026 30.3 855 25.25 -1.4 29.5 78 -4.7 23.5
09:15 1026 30.3 855 25.25 -1.1 30 78 -4.5 23.9
09:20 1026 30.3 855 25.25 -0.7 30.8 76 -4.4 24.1
09:25 1026 30.3 855 25.25 -0.1 31.8 74 -4.2 24.4
09:30 1026 30.3 855 25.25 0.2 32.4 70 -4.7 23.6
09:35 1026 30.3 856 25.28 -0.1 31.9 75 -4 24.7
09:40 1026 30.3 856 25.28 0 32.1 70 -4.8 23.4
09:45 1027 30.33 856 25.28 0.2 32.4 73 -4.1 24.7
09:50 1027 30.33 856 25.28 0.6 33.1 71 -4 24.7
09:55 1027 30.33 856 25.28 1.2 34.2 68 -4.1 24.6
10:00 1027 30.33 856 25.28 1.4 34.5 67 -4.1 24.6
10:05 1027 30.33 856 25.28 1 33.8 68 -4.3 24.3
10:10 1027 30.33 856 25.28 0.9 33.7 71 -3.7 25.3
10:15 1027 30.33 856 25.28 1.1 34 72 -3.4 25.9
10:20 1027 30.33 856 25.28 0.8 33.5 80 -2.2 28.1
10:25 1027 30.33 856 25.28 0.7 33.3 82 -2.1 28.3
10:30 1027 30.33 857 25.31 1.2 34.1 78 -2.3 27.9
10:35 1027 30.33 857 25.31 1.3 34.4 78 -2.1 28.2
10:40 1028 30.36 857 25.31 0.8 33.4 81 -2.2 28.1
10:45 1028 30.36 857 25.31 0.1 32.1 84 -2.3 27.8
10:50 1028 30.36 857 25.31 0.2 32.4 82 -2.5 27.5
10:55 1028 30.36 857 25.31 0.5 33 79 -2.8 27
11:00 1028 30.36 857 25.31 0.4 32.7 81 -2.5 27.5
11:05 1028 30.36 857 25.31 -0.2 31.6 79 -3.5 25.8
11:10 1028 30.36 857 25.31 0.3 32.5 79 -3 26.6
11:15 1028 30.36 857 25.31 1 33.9 79 -2.2 28
11:20 1028 30.36 857 25.31 1.3 34.4 73 -3 26.6
11:25 1028 30.36 857 25.31 1.2 34.2 75 -2.7 27.1
11:30 1028 30.36 857 25.31 0.4 32.8 76 -3.2 26.2
11:35 1028 30.36 857 25.31 0.5 32.9 77 -3.1 26.4
11:40 1028 30.36 857 25.31 1.3 34.3 76 -2.5 27.4
11:45 1028 30.36 857 25.31 1.4 34.6 70 -3.4 25.8
11:50 1028 30.36 857 25.31 1.6 34.9 72 -3 26.7
11:55 1028 30.36 857 25.31 1.8 35.3 73 -2.5 27.5
12:00 1028 30.36 857 25.31 1.8 35.2 73 -2.6 27.3
12:05 1028 30.36 857 25.31 2.3 36.1 70 -2.7 27.2
12:10 1028 30.36 857 25.31 2 35.6 73 -2.3 27.9
12:15 1028 30.36 857 25.31 0.6 33 79 -2.6 27.3
12:20 1028 30.36 857 25.31 0.7 33.2 76 -3.1 26.5
12:25 1028 30.36 857 25.31 1.9 35.4 69 -3.2 26.3
12:30 1028 30.36 857 25.31 2 35.6 74 -2.2 28
12:35 1028 30.36 857 25.31 1.7 35.1 68 -3.5 25.7
12:40 1028 30.36 857 25.31 1.7 35 69 -3.4 25.9
12:45 1028 30.36 857 25.31 1.4 34.6 69 -3.7 25.4
12:50 1028 30.36 857 25.31 1.6 34.9 69 -3.5 25.7
12:55 1028 30.36 857 25.31 1.8 35.3 63 -4.4 24.1
13:00 1028 30.36 857 25.31 2.1 35.8 61 -4.7 23.5
13:05 1028 30.36 857 25.31 2.3 36.1 62 -4.2 24.4
13:10 1028 30.36 857 25.31 2 35.7 63 -4.3 24.3
13:15 1028 30.36 857 25.31 2.3 36.2 63 -4.1 24.7
13:20 1028 30.36 857 25.31 2.9 37.3 59 -4.2 24.4
13:25 1028 30.36 857 25.31 3.3 37.9 60 -3.7 25.4
13:30 1028 30.36 857 25.31 3.6 38.4 56 -4.5 23.9
13:35 1028 30.36 857 25.31 3.5 38.2 55 -4.7 23.6
13:40 1028 30.36 857 25.31 3.7 38.7 57 -4.1 24.6
13:45 1028 30.36 857 25.31 3.9 39 53 -4.8 23.3
13:50 1028 30.36 857 25.31 4.2 39.5 53 -4.7 23.6
13:55 1028 30.36 857 25.31 4 39.2 55 -4.3 24.2
14:00 1028 30.36 857 25.31 3.8 38.9 54 -4.7 23.6
14:05 1028 30.36 857 25.31 4.1 39.5 54 -4.2 24.4
14:10 1028 30.36 857 25.31 4.2 39.6 56 -3.8 25.2
14:15 1028 30.36 857 25.31 4 39.2 58 -3.6 25.5
14:20 1028 30.36 857 25.31 4.5 40 52 -4.7 23.6
14:25 1028 30.36 857 25.31 3.8 38.8 55 -4.5 24
14:30 1028 30.36 857 25.31 3.8 38.9 58 -3.7 25.4
14:35 1028 30.36 857 25.31 2.8 37 61 -4.1 24.7
14:40 1028 30.36 857 25.31 2.4 36.3 59 -4.7 23.5
14:45 1028 30.36 857 25.31 1.8 35.2 61 -5 22.9
14:50 1027 30.33 857 25.31 2.1 35.8 59 -5 23
14:55 1027 30.33 857 25.31 2.1 35.7 61 -4.6 23.7
15:00 1027 30.33 857 25.31 2 35.6 57 -5.6 21.9
15:05 1027 30.33 857 25.31 2.4 36.2 58 -5.2 22.7
15:10 1027 30.33 856 25.28 2.6 36.6 57 -5.1 22.8
15:15 1027 30.33 856 25.28 2.9 37.3 54 -5.5 22
15:20 1027 30.33 856 25.28 2.4 36.3 57 -5.3 22.4
15:25 1027 30.33 856 25.28 2.4 36.3 56 -5.4 22.3
15:30 1027 30.33 856 25.28 3.2 37.7 53 -5.5 22.2
15:35 1027 30.33 856 25.28 3.3 38 49 -6.4 20.5
15:40 1027 30.33 856 25.28 3.6 38.5 51 -5.7 21.8
15:45 1027 30.33 856 25.28 4.3 39.7 49 -5.5 22.1
15:50 1027 30.33 856 25.28 4.2 39.5 50 -5.3 22.4
15:55 1027 30.33 856 25.28 4.7 40.5 47 -5.7 21.8
16:00 1027 30.33 856 25.28 5 41.1 46 -5.7 21.7
16:05 1027 30.33 856 25.28 5 41 46 -5.7 21.7
16:10 1027 30.33 856 25.28 5 41 46 -5.7 21.8
16:15 1027 30.33 856 25.28 4.8 40.6 48 -5.4 22.3
16:20 1027 30.33 856 25.28 4.9 40.8 47 -5.5 22.1
16:25 1027 30.33 856 25.28 5.1 41.3 45 -5.8 21.5
16:30 1027 30.33 856 25.28 5 41.1 46 -5.6 21.8
16:35 1027 30.33 856 25.28 5.3 41.5 46 -5.4 22.2
16:40 1027 30.33 856 25.28 5.3 41.6 47 -5.2 22.6
16:45 1027 30.33 856 25.28 4.1 39.5 51 -5.1 22.9
16:50 1027 30.33 856 25.28 3.6 38.6 51 -5.5 22
16:55 1027 30.33 856 25.28 4.6 40.2 49 -5.3 22.4
17:00 1027 30.33 856 25.28 4.9 40.9 46 -5.8 21.5
17:05 1027 30.33 856 25.28 4.7 40.5 48 -5.3 22.4
17:10 1027 30.33 856 25.28 4.4 40 53 -4.3 24.3
17:15 1027 30.33 856 25.28 3.7 38.6 54 -4.9 23.2
17:20 1027 30.33 856 25.28 3.4 38.1 56 -4.5 23.8
17:25 1027 30.33 856 25.28 2.8 37 58 -4.7 23.6
17:30 1027 30.33 856 25.28 2.5 36.5 58 -4.8 23.3
17:35 1027 30.33 856 25.28 2.3 36.1 59 -4.9 23.1
17:40 1027 30.33 856 25.28 2.1 35.8 56 -5.7 21.7
17:45 1027 30.33 856 25.28 2 35.5 57 -5.6 21.8
17:50 1027 30.33 856 25.28 2 35.6 56 -5.8 21.6
17:55 1027 30.33 856 25.28 2.4 36.3 57 -5.3 22.4
18:00 1027 30.33 856 25.28 2.3 36.2 59 -4.8 23.3
18:05 1027 30.33 856 25.28 2 35.6 62 -4.5 23.9
18:10 1027 30.33 856 25.28 1.8 35.2 61 -4.9 23.1
18:15 1027 30.33 857 25.31 1.6 34.8 65 -4.2 24.4
18:20 1027 30.33 856 25.28 1.3 34.4 66 -4.3 24.2
18:25 1027 30.33 856 25.28 1.3 34.3 65 -4.6 23.6
18:30 1027 30.33 856 25.28 1.2 34.2 64 -4.9 23.1
18:35 1027 30.33 856 25.28 1.2 34.2 62 -5.2 22.7
18:40 1027 30.33 856 25.28 1.2 34.1 64 -4.9 23.3
18:45 1027 30.33 856 25.28 1.1 33.9 62 -5.3 22.4
18:50 1027 30.33 856 25.28 0.9 33.7 66 -4.7 23.6
18:55 1027 30.33 856 25.28 0.7 33.2 68 -4.6 23.7
19:00 1027 30.33 856 25.28 0.2 32.3 72 -4.3 24.3
19:05 1027 30.33 856 25.28 -0.1 31.8 73 -4.4 24.1
19:10 1027 30.33 856 25.28 -0.4 31.3 75 -4.4 24.2
19:15 1027 30.33 856 25.28 -0.5 31 76 -4.2 24.5
19:20 1027 30.33 856 25.28 -0.7 30.8 77 -4.3 24.3
19:25 1027 30.33 856 25.28 -0.8 30.6 73 -5.1 22.9
19:30 1027 30.33 856 25.28 -0.8 30.6 71 -5.4 22.2
19:35 1027 30.33 856 25.28 -0.9 30.4 72 -5.3 22.4
19:40 1027 30.33 856 25.28 -1 30.1 71 -5.7 21.7
19:45 1027 30.33 856 25.28 -0.8 30.6 71 -5.3 22.4
19:50 1027 30.33 856 25.28 -0.9 30.4 66 -6.4 20.4
19:55 1027 30.33 856 25.28 -0.6 31 66 -6.2 20.9
20:00 1027 30.33 856 25.28 -0.5 31 69 -5.5 22.1
20:05 1027 30.33 856 25.28 -0.8 30.6 65 -6.6 20.1
20:10 1027 30.33 856 25.28 -0.5 31.1 62 -6.9 19.5
20:15 1027 30.33 856 25.28 -0.4 31.3 63 -6.5 20.3
20:20 1027 30.33 856 25.28 -0.4 31.4 64 -6.3 20.6
20:25 1027 30.33 856 25.28 -0.5 31.2 65 -6.2 20.8
20:30 1027 30.33 856 25.28 -0.6 30.9 66 -6.3 20.7
20:35 1027 30.33 856 25.28 -0.8 30.5 67 -6.2 20.9
20:40 1027 30.33 856 25.28 -0.9 30.4 68 -6.1 21
20:45 1027 30.33 856 25.28 -0.8 30.6 67 -6.1 21.1
20:50 1027 30.33 856 25.28 -0.8 30.6 67 -6.1 21
20:55 1027 30.33 856 25.28 -0.9 30.5 68 -6.1 21
21:00 1027 30.33 856 25.28 -1 30.1 68 -6.1 20.9
21:05 1027 30.33 856 25.28 -1 30.1 68 -6.3 20.7
21:10 1027 30.33 856 25.28 -1 30.2 69 -6 21.2
21:15 1027 30.33 856 25.28 -1 30.3 68 -6.2 20.8
21:20 1027 30.33 856 25.28 -1.1 30 68 -6.2 20.8
21:25 1027 30.33 856 25.28 -1.3 29.7 69 -6.2 20.9
21:30 1027 30.33 856 25.28 -1.3 29.7 68 -6.4 20.5
21:35 1027 30.33 856 25.28 -1.1 30 71 -5.8 21.6
21:40 1027 30.33 856 25.28 -1.2 29.9 70 -6 21.2
21:45 1027 30.33 856 25.28 -1.1 30 69 -6.1 21.1
21:50 1027 30.33 856 25.28 -1.3 29.7 69 -6.3 20.7
21:55 1027 30.33 856 25.28 -1.6 29.2 69 -6.5 20.4
22:00 1027 30.33 856 25.28 -1.6 29.1 69 -6.6 20
22:05 1027 30.33 856 25.28 -1.9 28.5 70 -6.8 19.8
22:10 1027 30.33 856 25.28 -2.3 27.9 70 -7 19.5
22:15 1027 30.33 856 25.28 -2.4 27.7 72 -6.8 19.8
22:20 1027 30.33 856 25.28 -2.2 28 70 -6.9 19.5
22:25 1027 30.33 856 25.28 -2.4 27.7 70 -7.1 19.3
22:30 1027 30.33 856 25.28 -2.3 27.8 70 -7 19.3
22:35 1027 30.33 856 25.28 -2.4 27.6 71 -7.1 19.2
22:40 1027 30.33 856 25.28 -2.6 27.3 71 -7.2 19.1
22:45 1027 30.33 856 25.28 -2.3 27.8 70 -7 19.3
22:50 1027 30.33 856 25.28 -2.6 27.4 72 -6.9 19.5
22:55 1027 30.33 856 25.28 -2.7 27.1 72 -7 19.3
23:00 1027 30.33 856 25.28 -2.3 27.9 72 -6.7 19.9
23:05 1027 30.33 856 25.28 -2.1 28.2 69 -7 19.4
23:10 1027 30.33 856 25.28 -2.4 27.8 69 -7.2 19
23:15 1027 30.33 856 25.28 -2.7 27.2 70 -7.4 18.8
23:20 1027 30.33 856 25.28 -2.7 27.2 70 -7.5 18.6
23:25 1027 30.33 856 25.28 -2.8 26.9 71 -7.4 18.7
23:30 1027 30.33 856 25.28 -2.9 26.8 72 -7.3 18.8
23:35 1027 30.33 856 25.28 -3 26.6 71 -7.5 18.5
23:40 1027 30.33 856 25.28 -3 26.5 72 -7.3 18.8
23:45 1027 30.33 856 25.28 -3.2 26.2 73 -7.4 18.7
23:50 1027 30.33 856 25.28 -3.2 26.2 74 -7.1 19.1
23:55 1027 30.33 856 25.28 -3 26.6 71 -7.5 18.6
24:00 1027 30.33 856 25.28 -3 26.6 72 -7.4 18.6